UMMSUMGG

Guest
Details From UMMS - Minsk Velikiydvor
To UMGG - Gomel
Flight Number -
Tags generated
Created
Modified
Stats Distance 135 nm / 251 km
Max Altitude 12,600 ft / 3,840 m
Waypoints 3
Social Downloads 1
Likes 0
Share VATSIM

Download

Looking for another format? Having issues loading an existing format? Contact us
Advertisement - Login to hide

Notes

Basic altitude profile: - Ascent Rate: 2500ft/min - Ascent Speed: 250kts - Cruise Altitude: 200ft - Cruise Speed: 420kts - Descent Rate: 1500ft/min - Descent Speed: 250kts Options: - Use NATs: yes - Use PACOTS: yes - Use low airways: yes - Use high airways: yes

Route

UMMS NASKA UMGG

ID Type Via Altitude Latitude Longitude Leg Dist Tot Dist Heading (true) Name
O UMMS APT - 0 ft / 0 m 53.88255˚ 28.03079˚ - 0 nm - Minsk Velikiydvor
NASKA FIX - 12,600 ft / 3,840 m 53.61667˚ 28.91667˚ 35 nm 35 nm 117° / 117° -
O UMGG APT - 0 ft / 0 m 52.52703˚ 31.01647˚ 100 nm 135 nm 130° / 132° Gomel

Altitude Profile

Advertisement - Login to hide

UMMS

Details ICAO UMMS (MSQ)
Name Minsk Velikiydvor
Region Belarus and Russia (Kaliningrad Oblast)
Timezone Europe/Minsk (UTC+3.0)
Stats Elevation 669 ft / 204 m (AMSL)
Location 53.882550° 28.030786°
Runways 1
Magnetic Variation 8.076° E

METAR

UMMS 211030Z 21003G07MPS 140V270 CAVOK 27/11 Q1013 R13/D NOSIG

Decode

TAF

TAF UMMS 210502Z 2106/2206 20005G10MPS 9999 SCT030 TX25/2112Z TN13/2202Z TEMPO 2107/2118 22009G14MPS TEMPO 2118/2206 18009G14MPS 3000 -TSRA SCT006 BKN020CB

Decode

Departure Runways

ID Width Length Bearing (true) Bearing (mag) Surface Threshold Offset Overrun Length
13 197 ft / 60 m 11,938 ft / 3,639 m 138.85° 130.77° Concrete 0 ft / 0 m 0 ft / 0 m
31 197 ft / 60 m 11,938 ft / 3,639 m 318.88° 310.80° Concrete 0 ft / 0 m 0 ft / 0 m

UMGG

Details ICAO UMGG (GME)
Name Gomel
Region Belarus and Russia (Kaliningrad Oblast)
Timezone Europe/Minsk (UTC+3.0)
Stats Elevation 472 ft / 144 m (AMSL)
Location 52.527026° 31.016471°
Runways 1
Magnetic Variation 8.398° E

METAR

UMGG 211030Z 24004MPS CAVOK 27/12 Q1015 R28/D NOSIG

Decode

TAF

TAF UMGG 210500Z 2106/2206 26006MPS 9999 SCT030 TX28/2112Z TN19/2202Z BECMG 2111/2113 24006MPS BECMG 2118/2120 18006G11MPS TEMPO 2200/2206 2000 SHRA BKN005 BKN025CB

Decode

Destination Runways

ID Width Length Bearing (true) Bearing (mag) Surface Threshold Offset Overrun Length
11 141 ft / 43 m 8,405 ft / 2,562 m 110.82° 102.42° Asphalt 0 ft / 0 m 164 ft / 50 m
29 141 ft / 43 m 8,405 ft / 2,562 m 290.85° 282.45° Asphalt 0 ft / 0 m 164 ft / 50 m

Approach Navaids

Runway Type Ident Frequency Range Bearing (true) Bearing (mag) Slope Elevation
11 Localiser IGM 109.30 MHz 18 nm / 33 km 110.82° 102.42° - 471 ft / 144 m (AMSL)
11 Glidescope IGM 109.30 MHz 10 nm / 19 km 109.18° 100.78° 2.70° 471 ft / 144 m (AMSL)
29 Localiser IMV 108.70 MHz 18 nm / 33 km 290.82° 282.42° - 471 ft / 144 m (AMSL)
29 Glidescope IMV 108.70 MHz 10 nm / 19 km 290.82° 282.42° 2.70° 471 ft / 144 m (AMSL)

Popular Alternatives